createdAt,value
2017-12-29T00:00:57.632Z,83.38
2017-12-29T00:03:25.108Z,83.38
2017-12-29T00:05:52.624Z,82.87
2017-12-29T00:08:20.107Z,83.40
2017-12-29T00:10:48.494Z,83.20
2017-12-29T00:13:15.995Z,83.08
2017-12-29T00:15:43.480Z,83.31
2017-12-29T00:18:10.967Z,83.57
2017-12-29T00:20:38.445Z,83.37
2017-12-29T00:23:05.935Z,84.20
2017-12-29T00:25:33.476Z,84.25
2017-12-29T00:28:00.967Z,84.49
2017-12-29T00:30:28.453Z,84.91
2017-12-29T00:32:55.918Z,84.93
2017-12-29T00:35:23.432Z,84.85
2017-12-29T00:37:50.924Z,84.90
2017-12-29T00:40:18.373Z,85.17
2017-12-29T00:42:45.893Z,85.34
2017-12-29T00:45:13.384Z,85.28
2017-12-29T00:47:40.881Z,85.89
2017-12-29T00:50:08.372Z,85.79
2017-12-29T00:52:35.868Z,85.58
2017-12-29T00:55:03.357Z,85.49
2017-12-29T00:57:30.855Z,85.41
2017-12-29T00:59:58.337Z,85.46
2017-12-29T01:02:25.806Z,85.44
2017-12-29T01:04:53.273Z,85.42
2017-12-29T01:07:20.756Z,85.78
2017-12-29T01:09:48.296Z,86.32
2017-12-29T01:12:15.751Z,85.96
2017-12-29T01:14:43.225Z,86.45
2017-12-29T01:17:10.680Z,86.30
2017-12-29T01:19:38.479Z,86.49
2017-12-29T01:22:05.937Z,86.83
2017-12-29T01:24:33.396Z,86.69
2017-12-29T01:27:00.904Z,87.05
2017-12-29T01:29:28.392Z,87.11
2017-12-29T01:31:55.867Z,87.18
2017-12-29T01:34:23.355Z,87.56
2017-12-29T01:36:50.841Z,87.16
2017-12-29T01:39:18.324Z,86.91
2017-12-29T01:41:46.479Z,87.35
2017-12-29T01:44:13.964Z,87.13
2017-12-29T01:46:41.444Z,87.41
2017-12-29T01:49:08.947Z,87.42
2017-12-29T01:51:36.435Z,87.04
2017-12-29T01:54:03.933Z,87.13
2017-12-29T01:56:31.444Z,86.74
2017-12-29T01:58:58.932Z,86.82
2017-12-29T02:01:26.422Z,87.33
2017-12-29T02:03:53.932Z,87.56
2017-12-29T02:06:21.402Z,87.33
2017-12-29T02:08:48.883Z,87.54
2017-12-29T02:11:16.392Z,87.29
2017-12-29T02:13:43.879Z,87.72
2017-12-29T02:16:11.347Z,87.45
2017-12-29T02:18:38.825Z,87.31
2017-12-29T02:21:06.327Z,87.34
2017-12-29T02:23:33.824Z,87.07
2017-12-29T02:26:02.152Z,87.22
2017-12-29T02:28:29.617Z,87.05
2017-12-29T02:30:57.105Z,86.41
2017-12-29T02:33:24.604Z,86.31
2017-12-29T02:35:52.070Z,86.76
2017-12-29T02:38:19.556Z,86.48
2017-12-29T02:40:47.030Z,86.36
2017-12-29T02:43:14.522Z,86.35
2017-12-29T02:45:42.005Z,86.53
2017-12-29T02:48:09.475Z,86.55
2017-12-29T02:50:36.941Z,86.28
2017-12-29T02:53:04.444Z,85.99
2017-12-29T02:55:31.917Z,86.06
2017-12-29T02:57:59.392Z,85.84
2017-12-29T03:00:26.854Z,86.26
2017-12-29T03:02:54.339Z,86.23
2017-12-29T03:05:21.848Z,86.62
2017-12-29T03:07:49.280Z,86.99
2017-12-29T03:10:16.736Z,86.79
2017-12-29T03:12:44.218Z,86.45
2017-12-29T03:15:11.677Z,86.34
2017-12-29T03:17:39.129Z,86.14
2017-12-29T03:20:06.609Z,86.61
2017-12-29T03:22:34.082Z,86.25
2017-12-29T03:25:01.534Z,86.24
2017-12-29T03:27:28.992Z,86.08
2017-12-29T03:29:56.485Z,86.34
2017-12-29T03:32:23.942Z,86.91
2017-12-29T03:34:51.423Z,86.88
2017-12-29T03:37:18.889Z,86.96
2017-12-29T03:39:46.376Z,87.71
2017-12-29T03:42:13.876Z,87.64
2017-12-29T03:44:41.945Z,87.78
2017-12-29T03:47:09.409Z,87.78
2017-12-29T03:49:36.909Z,87.85
2017-12-29T03:52:04.390Z,87.50
2017-12-29T03:54:31.858Z,87.96
2017-12-29T03:56:59.351Z,87.55
2017-12-29T03:59:26.841Z,88.09
2017-12-29T04:01:54.329Z,87.96
2017-12-29T04:04:21.793Z,88.29
2017-12-29T04:06:49.277Z,87.79
2017-12-29T04:09:16.757Z,87.75
2017-12-29T04:11:44.269Z,87.10
2017-12-29T04:14:11.725Z,87.02
2017-12-29T04:16:39.223Z,87.20
2017-12-29T04:19:10.179Z,86.89
2017-12-29T04:21:37.691Z,86.63
2017-12-29T04:24:05.191Z,86.54
2017-12-29T04:26:32.680Z,86.62
2017-12-29T04:29:00.156Z,86.52
2017-12-29T04:31:27.635Z,85.99
2017-12-29T04:33:55.123Z,86.29
2017-12-29T04:36:22.622Z,86.30
2017-12-29T04:38:50.104Z,86.03
2017-12-29T04:41:17.569Z,86.30
2017-12-29T04:43:45.063Z,86.71
2017-12-29T04:46:12.539Z,86.48
2017-12-29T04:48:40.010Z,86.96
2017-12-29T04:51:07.484Z,87.00
2017-12-29T04:53:34.960Z,86.50
2017-12-29T04:56:02.456Z,86.71
2017-12-29T04:58:29.956Z,86.80
2017-12-29T05:00:57.458Z,87.06
2017-12-29T05:03:24.951Z,86.72
2017-12-29T05:05:52.430Z,87.09
2017-12-29T05:08:19.893Z,87.06
2017-12-29T05:10:47.375Z,86.82
2017-12-29T05:13:14.867Z,86.45
2017-12-29T05:15:42.359Z,86.97
2017-12-29T05:18:09.839Z,86.67
2017-12-29T05:20:37.333Z,86.32
2017-12-29T05:23:04.820Z,85.94
2017-12-29T05:25:32.291Z,85.91
2017-12-29T05:27:59.761Z,85.62
2017-12-29T05:30:27.273Z,86.00
2017-12-29T05:32:54.736Z,85.95
2017-12-29T05:35:22.220Z,86.04
2017-12-29T05:37:49.711Z,86.00
2017-12-29T05:40:17.209Z,85.91
2017-12-29T05:42:44.694Z,86.15
2017-12-29T05:45:12.188Z,86.10
2017-12-29T05:47:39.693Z,85.84
2017-12-29T05:50:07.163Z,86.02
2017-12-29T05:52:34.660Z,85.91
2017-12-29T05:55:02.141Z,86.66
2017-12-29T05:57:29.640Z,86.50
2017-12-29T05:59:57.115Z,86.45
2017-12-29T06:02:24.603Z,86.97
2017-12-29T06:04:52.091Z,87.08
2017-12-29T06:07:19.573Z,87.09
2017-12-29T06:09:47.056Z,87.44
2017-12-29T06:12:14.551Z,87.91
2017-12-29T06:14:42.040Z,87.33
2017-12-29T06:17:09.527Z,88.02
2017-12-29T06:19:37.001Z,88.36
2017-12-29T06:22:04.482Z,88.91
2017-12-29T06:24:31.992Z,89.23
2017-12-29T06:26:59.465Z,89.05
2017-12-29T06:29:26.967Z,89.63
2017-12-29T06:31:54.431Z,90.02
2017-12-29T06:34:21.916Z,90.00
2017-12-29T06:36:49.386Z,90.02
2017-12-29T06:39:16.854Z,89.64
2017-12-29T06:41:44.337Z,89.38
2017-12-29T06:44:11.837Z,89.38
2017-12-29T06:46:39.316Z,89.00
2017-12-29T06:49:06.789Z,89.08
2017-12-29T06:51:34.269Z,88.84
2017-12-29T06:54:01.778Z,88.58
2017-12-29T06:56:29.271Z,88.04
2017-12-29T06:58:56.750Z,87.82
2017-12-29T07:01:24.269Z,87.51
2017-12-29T07:03:51.880Z,87.80
2017-12-29T07:06:19.411Z,87.33
2017-12-29T07:08:46.873Z,87.50
2017-12-29T07:11:14.354Z,87.33
2017-12-29T07:13:41.809Z,87.01
2017-12-29T07:16:09.291Z,87.24
2017-12-29T07:18:36.745Z,87.04
2017-12-29T07:21:04.239Z,87.08
2017-12-29T07:23:31.744Z,86.76
2017-12-29T07:25:59.250Z,86.81
2017-12-29T07:28:26.714Z,86.81
2017-12-29T07:30:54.226Z,87.13
2017-12-29T07:33:21.728Z,87.53
2017-12-29T07:35:49.206Z,86.73
2017-12-29T07:38:16.685Z,86.46
2017-12-29T07:40:44.264Z,86.81
2017-12-29T07:43:11.734Z,86.93
2017-12-29T07:45:39.217Z,86.96
2017-12-29T07:48:06.740Z,86.60
2017-12-29T07:50:34.205Z,86.56
2017-12-29T07:53:01.758Z,87.28
2017-12-29T07:55:29.271Z,86.37
2017-12-29T07:57:56.889Z,87.26
2017-12-29T08:00:24.384Z,86.93
2017-12-29T08:02:51.921Z,87.21
2017-12-29T08:05:19.616Z,86.79
2017-12-29T08:07:47.122Z,86.57
2017-12-29T08:10:14.690Z,87.34
2017-12-29T08:12:42.188Z,86.78
2017-12-29T08:15:09.786Z,86.72
2017-12-29T08:17:37.355Z,87.17
2017-12-29T08:20:04.862Z,87.16
2017-12-29T08:22:32.464Z,87.12
2017-12-29T08:24:59.942Z,87.23
2017-12-29T08:27:27.462Z,88.11
2017-12-29T08:29:54.992Z,88.14
2017-12-29T08:32:23.347Z,87.51
2017-12-29T08:34:50.882Z,87.83
2017-12-29T08:37:18.558Z,87.40
2017-12-29T08:39:46.053Z,87.26
2017-12-29T08:42:13.573Z,87.23
2017-12-29T08:44:41.078Z,86.76
2017-12-29T08:47:08.733Z,86.51
2017-12-29T08:49:36.256Z,87.13
2017-12-29T08:52:03.829Z,86.44
2017-12-29T08:54:31.476Z,86.44
2017-12-29T08:56:59.078Z,86.23
2017-12-29T08:59:26.544Z,86.47
2017-12-29T09:01:54.032Z,86.08
2017-12-29T09:04:21.539Z,85.70
2017-12-29T09:06:49.160Z,85.07
2017-12-29T09:09:16.609Z,83.65
2017-12-29T09:11:44.233Z,81.33
2017-12-29T09:14:11.708Z,79.63
2017-12-29T09:16:39.182Z,78.46
2017-12-29T09:19:06.704Z,76.22
2017-12-29T09:21:34.188Z,75.87
2017-12-29T09:24:01.657Z,73.70
2017-12-29T09:26:29.298Z,74.27
2017-12-29T09:28:56.864Z,72.43
2017-12-29T09:31:24.388Z,70.50
2017-12-29T09:33:51.869Z,72.22
2017-12-29T09:36:19.531Z,71.64
2017-12-29T09:38:47.032Z,71.19
2017-12-29T09:41:14.507Z,72.08
2017-12-29T09:43:41.991Z,73.28
2017-12-29T09:46:09.485Z,74.63
2017-12-29T09:48:36.960Z,75.55
2017-12-29T09:51:04.441Z,74.06
2017-12-29T09:53:31.932Z,74.65
2017-12-29T09:55:59.429Z,75.75
2017-12-29T09:58:26.885Z,75.15
2017-12-29T10:00:54.349Z,76.34
2017-12-29T10:03:21.913Z,76.28
2017-12-29T10:05:49.384Z,76.85
2017-12-29T10:08:17.449Z,77.02
2017-12-29T10:10:44.987Z,76.64
2017-12-29T10:13:12.467Z,76.13
2017-12-29T10:15:39.969Z,75.38
2017-12-29T10:18:11.830Z,76.08
2017-12-29T10:20:39.312Z,76.00
2017-12-29T10:23:06.847Z,75.84
2017-12-29T10:25:36.384Z,76.78
2017-12-29T10:28:03.877Z,75.83
2017-12-29T10:30:31.840Z,76.83
2017-12-29T10:32:59.368Z,75.34
2017-12-29T10:35:27.017Z,74.47
2017-12-29T10:37:54.496Z,74.57
2017-12-29T10:40:22.088Z,73.81
2017-12-29T10:42:49.564Z,74.85
2017-12-29T10:45:18.043Z,74.74
2017-12-29T10:47:45.517Z,73.93
2017-12-29T10:50:13.069Z,74.36
2017-12-29T10:52:40.611Z,75.15
2017-12-29T10:55:08.112Z,75.13
2017-12-29T10:57:35.904Z,75.81
2017-12-29T11:00:03.391Z,75.41
2017-12-29T11:02:30.846Z,75.68
2017-12-29T11:04:58.338Z,74.67
2017-12-29T11:07:25.835Z,75.28
2017-12-29T11:09:54.023Z,74.49
2017-12-29T11:12:21.510Z,74.69
2017-12-29T11:14:49.036Z,74.96
2017-12-29T11:17:17.245Z,74.36
2017-12-29T11:19:44.771Z,73.20
2017-12-29T11:22:12.267Z,73.83
2017-12-29T11:24:40.073Z,74.44
2017-12-29T11:27:07.551Z,73.73
2017-12-29T11:29:35.115Z,73.26
2017-12-29T11:32:02.601Z,73.03
2017-12-29T11:34:30.105Z,72.68
2017-12-29T11:36:57.581Z,72.94
2017-12-29T11:39:25.138Z,72.24
2017-12-29T11:41:52.689Z,72.11
2017-12-29T11:44:20.163Z,72.02
2017-12-29T11:46:48.367Z,72.88
2017-12-29T11:49:15.854Z,70.87
2017-12-29T11:51:43.340Z,70.12
2017-12-29T11:54:10.820Z,72.26
2017-12-29T11:56:40.662Z,71.48
2017-12-29T11:59:08.151Z,70.17
2017-12-29T12:01:35.629Z,70.77
2017-12-29T12:04:03.106Z,68.86
2017-12-29T12:06:30.644Z,71.33
2017-12-29T12:08:58.119Z,69.71
2017-12-29T12:11:25.608Z,69.47
2017-12-29T12:13:53.081Z,69.16
2017-12-29T12:16:20.583Z,69.41
2017-12-29T12:18:48.058Z,69.63
2017-12-29T12:21:15.526Z,69.23
2017-12-29T12:23:43.013Z,69.22
2017-12-29T12:26:10.503Z,69.09
2017-12-29T12:28:37.993Z,69.41
2017-12-29T12:31:05.468Z,68.48
2017-12-29T12:33:32.930Z,68.58
2017-12-29T12:36:01.156Z,70.71
2017-12-29T12:38:28.609Z,70.01
2017-12-29T12:40:56.106Z,71.04
2017-12-29T12:43:23.589Z,71.19
2017-12-29T12:45:51.710Z,70.59
2017-12-29T12:48:19.406Z,69.26
2017-12-29T12:50:47.174Z,69.66
2017-12-29T12:53:14.931Z,70.51
2017-12-29T12:55:42.407Z,71.34
2017-12-29T12:58:09.866Z,70.12
2017-12-29T13:00:37.431Z,71.32
2017-12-29T13:03:04.929Z,71.87
2017-12-29T13:05:32.373Z,70.73
2017-12-29T13:07:59.857Z,71.22
2017-12-29T13:10:27.371Z,71.28
2017-12-29T13:12:54.829Z,71.21
2017-12-29T13:15:22.293Z,71.51
2017-12-29T13:17:49.756Z,71.74
2017-12-29T13:20:17.213Z,71.18
2017-12-29T13:22:44.685Z,70.32
2017-12-29T13:25:12.180Z,71.84
2017-12-29T13:27:39.673Z,70.83
2017-12-29T13:30:07.142Z,70.00
2017-12-29T13:32:34.614Z,70.08
2017-12-29T13:35:02.084Z,69.62
2017-12-29T13:37:29.568Z,70.18
2017-12-29T13:39:57.034Z,70.66
2017-12-29T13:42:24.525Z,69.37
2017-12-29T13:44:52.009Z,72.01
2017-12-29T13:47:19.490Z,70.93
2017-12-29T13:49:46.966Z,70.50
2017-12-29T13:52:14.480Z,71.70
2017-12-29T13:54:41.950Z,71.28
2017-12-29T13:57:09.433Z,71.07
2017-12-29T13:59:36.903Z,71.11
2017-12-29T14:02:04.368Z,71.14
2017-12-29T14:04:31.846Z,71.79
2017-12-29T14:06:59.305Z,71.48
2017-12-29T14:09:26.765Z,73.25
2017-12-29T14:11:54.238Z,71.96
2017-12-29T14:14:21.710Z,72.02
2017-12-29T14:16:49.161Z,72.59
2017-12-29T14:19:16.637Z,72.04
2017-12-29T14:21:44.104Z,72.83
2017-12-29T14:24:11.593Z,72.90
2017-12-29T14:26:39.050Z,72.13
2017-12-29T14:29:06.512Z,73.47
2017-12-29T14:31:34.146Z,72.57
2017-12-29T14:34:01.619Z,72.55
2017-12-29T14:36:29.185Z,72.66
2017-12-29T14:38:56.734Z,73.98
2017-12-29T14:41:24.220Z,73.73
2017-12-29T14:43:51.796Z,73.62
2017-12-29T14:46:19.267Z,72.78
2017-12-29T14:48:46.728Z,73.31
2017-12-29T14:51:14.202Z,72.43
2017-12-29T14:53:41.696Z,71.80
2017-12-29T14:56:09.194Z,72.22
2017-12-29T14:58:36.698Z,71.47
2017-12-29T15:01:04.174Z,71.49
2017-12-29T15:03:31.667Z,72.41
2017-12-29T15:05:59.129Z,72.24
2017-12-29T15:08:26.631Z,72.17
2017-12-29T15:10:54.101Z,73.31
2017-12-29T15:13:21.611Z,72.47
2017-12-29T15:15:49.105Z,72.74
2017-12-29T15:18:16.587Z,73.28
2017-12-29T15:20:44.037Z,74.33
2017-12-29T15:23:11.518Z,73.92
2017-12-29T15:25:38.980Z,73.99
2017-12-29T15:28:07.280Z,74.33
2017-12-29T15:30:34.741Z,74.17
2017-12-29T15:33:02.212Z,73.97
2017-12-29T15:35:29.692Z,73.57
2017-12-29T15:37:57.157Z,73.98
2017-12-29T15:40:25.576Z,74.09
2017-12-29T15:42:53.070Z,73.10
2017-12-29T15:45:20.558Z,73.24
2017-12-29T15:47:48.412Z,73.97
2017-12-29T15:50:15.880Z,72.97
2017-12-29T15:52:43.358Z,71.54
2017-12-29T15:55:10.812Z,71.30
2017-12-29T15:57:38.284Z,71.09
2017-12-29T16:00:05.785Z,71.69
2017-12-29T16:02:34.167Z,71.36
2017-12-29T16:05:01.626Z,70.05
2017-12-29T16:07:29.115Z,70.60
2017-12-29T16:09:56.596Z,69.83
2017-12-29T16:12:24.067Z,71.87
2017-12-29T16:14:51.554Z,73.38
2017-12-29T16:17:19.055Z,73.93
2017-12-29T16:19:46.542Z,74.37
2017-12-29T16:22:14.140Z,75.59
2017-12-29T16:24:41.611Z,75.92
2017-12-29T16:27:09.108Z,75.20
2017-12-29T16:29:36.573Z,75.09
2017-12-29T16:32:04.049Z,74.51
2017-12-29T16:34:31.519Z,74.55
2017-12-29T16:36:58.994Z,75.41
2017-12-29T16:39:26.450Z,75.46
2017-12-29T16:41:53.925Z,74.80
2017-12-29T16:44:21.435Z,76.00
2017-12-29T16:46:48.882Z,74.67
2017-12-29T16:49:16.339Z,74.74
2017-12-29T16:51:43.816Z,74.91
2017-12-29T16:54:11.295Z,75.87
2017-12-29T16:56:38.783Z,74.52
2017-12-29T16:59:06.291Z,75.72
2017-12-29T17:01:33.780Z,75.67
2017-12-29T17:04:01.355Z,75.88
2017-12-29T17:06:28.801Z,76.33
2017-12-29T17:08:56.277Z,77.21
2017-12-29T17:11:23.745Z,76.87
2017-12-29T17:13:51.228Z,76.42
2017-12-29T17:16:18.714Z,76.63
2017-12-29T17:18:46.181Z,77.16
2017-12-29T17:21:13.667Z,76.19
2017-12-29T17:23:41.151Z,76.87
2017-12-29T17:26:08.737Z,77.82
2017-12-29T17:28:36.217Z,76.22
2017-12-29T17:31:03.690Z,76.28
2017-12-29T17:33:31.182Z,76.66
2017-12-29T17:35:58.647Z,76.86
2017-12-29T17:38:26.118Z,77.06
2017-12-29T17:40:53.616Z,76.79
2017-12-29T17:43:21.102Z,77.29
2017-12-29T17:45:48.563Z,77.89
2017-12-29T17:48:16.018Z,78.15
2017-12-29T17:50:43.476Z,78.34
2017-12-29T17:53:10.952Z,78.68
2017-12-29T17:55:38.446Z,79.01
2017-12-29T17:58:05.937Z,79.45
2017-12-29T18:00:33.439Z,79.88
2017-12-29T18:03:00.922Z,80.23
2017-12-29T18:05:28.437Z,80.25
2017-12-29T18:07:55.893Z,80.20
2017-12-29T18:10:23.369Z,79.24
2017-12-29T18:12:50.833Z,79.25
2017-12-29T18:15:18.299Z,79.20
2017-12-29T18:17:46.694Z,78.65
2017-12-29T18:20:14.172Z,78.46
2017-12-29T18:22:41.644Z,78.46
2017-12-29T18:25:09.115Z,77.79
2017-12-29T18:27:36.621Z,77.56
2017-12-29T18:30:04.162Z,76.88
2017-12-29T18:32:31.624Z,76.74
2017-12-29T18:34:59.100Z,77.01
2017-12-29T18:37:26.600Z,77.24
2017-12-29T18:39:54.086Z,77.37
2017-12-29T18:42:21.624Z,77.83
2017-12-29T18:44:49.103Z,77.99
2017-12-29T18:47:16.567Z,77.87
2017-12-29T18:49:44.048Z,78.15
2017-12-29T18:52:11.580Z,78.71
2017-12-29T18:54:39.070Z,78.69
2017-12-29T18:57:06.565Z,79.22
2017-12-29T18:59:34.042Z,79.45
2017-12-29T19:02:01.524Z,79.57
2017-12-29T19:04:29.054Z,79.76
2017-12-29T19:06:56.513Z,80.20
2017-12-29T19:09:23.978Z,80.19
2017-12-29T19:11:51.504Z,79.95
2017-12-29T19:14:18.956Z,79.97
2017-12-29T19:16:47.225Z,81.08
2017-12-29T19:19:14.711Z,81.43
2017-12-29T19:21:42.167Z,81.69
2017-12-29T19:24:09.653Z,81.90
2017-12-29T19:26:37.156Z,82.31
2017-12-29T19:29:04.623Z,83.29
2017-12-29T19:31:32.151Z,84.20
2017-12-29T19:33:59.667Z,85.68
2017-12-29T19:36:27.423Z,85.96
2017-12-29T19:38:54.972Z,86.72
2017-12-29T19:41:22.460Z,87.90
2017-12-29T19:43:49.968Z,89.47
2017-12-29T19:46:17.497Z,89.52
2017-12-29T19:48:45.076Z,90.17
2017-12-29T19:51:12.545Z,90.68
2017-12-29T19:53:40.017Z,90.76
2017-12-29T19:56:08.325Z,91.41
2017-12-29T19:58:35.941Z,91.29
2017-12-29T20:01:03.407Z,91.25
2017-12-29T20:03:30.988Z,91.24
2017-12-29T20:05:58.504Z,91.23
2017-12-29T20:08:26.096Z,91.91
2017-12-29T20:10:53.612Z,91.18
2017-12-29T20:13:21.088Z,90.95
2017-12-29T20:15:48.549Z,90.69
2017-12-29T20:18:16.584Z,90.73
2017-12-29T20:20:44.868Z,90.65
2017-12-29T20:23:12.348Z,90.65
2017-12-29T20:25:39.806Z,90.40
2017-12-29T20:28:07.304Z,90.17
2017-12-29T20:30:34.828Z,90.16
2017-12-29T20:33:02.312Z,90.57
2017-12-29T20:35:29.853Z,89.84
2017-12-29T20:37:57.332Z,89.53
2017-12-29T20:40:24.827Z,89.21
2017-12-29T20:42:52.312Z,89.17
2017-12-29T20:45:19.821Z,88.82
2017-12-29T20:47:47.417Z,88.66
2017-12-29T20:50:14.908Z,88.82
2017-12-29T20:52:42.376Z,89.08
2017-12-29T20:55:09.893Z,89.25
2017-12-29T20:57:37.358Z,89.03
2017-12-29T21:00:04.842Z,89.03
2017-12-29T21:02:32.342Z,89.29
2017-12-29T21:04:59.825Z,89.39
2017-12-29T21:07:27.853Z,90.15
2017-12-29T21:09:55.334Z,90.26
2017-12-29T21:12:23.145Z,89.33
2017-12-29T21:14:51.444Z,88.98
2017-12-29T21:17:18.905Z,88.62
2017-12-29T21:19:46.354Z,86.98
2017-12-29T21:22:13.819Z,86.70
2017-12-29T21:24:41.326Z,86.55
2017-12-29T21:27:08.808Z,86.23
2017-12-29T21:29:36.302Z,86.57
2017-12-29T21:32:03.762Z,86.42
2017-12-29T21:34:31.270Z,86.74
2017-12-29T21:36:58.736Z,87.57
2017-12-29T21:39:26.205Z,87.83
2017-12-29T21:41:53.661Z,87.91
2017-12-29T21:44:21.997Z,88.13
2017-12-29T21:46:49.462Z,88.14
2017-12-29T21:49:16.918Z,87.77
2017-12-29T21:51:44.414Z,88.29
2017-12-29T21:54:11.893Z,88.15
2017-12-29T21:56:39.420Z,88.47
2017-12-29T21:59:06.941Z,88.66
2017-12-29T22:01:34.452Z,88.82
2017-12-29T22:04:01.930Z,88.46
2017-12-29T22:06:29.599Z,88.70
2017-12-29T22:08:57.101Z,88.97
2017-12-29T22:11:24.602Z,88.99
2017-12-29T22:13:52.628Z,89.16
2017-12-29T22:16:20.205Z,89.25
2017-12-29T22:18:47.664Z,89.46
2017-12-29T22:21:15.163Z,89.24
2017-12-29T22:23:42.639Z,90.53
2017-12-29T22:26:10.155Z,89.59
2017-12-29T22:28:37.630Z,89.82
2017-12-29T22:31:05.126Z,89.57
2017-12-29T22:33:33.285Z,89.96
2017-12-29T22:36:00.759Z,89.97
2017-12-29T22:38:28.354Z,89.62
2017-12-29T22:40:55.820Z,89.68
2017-12-29T22:43:23.322Z,89.49
2017-12-29T22:45:50.951Z,90.53
2017-12-29T22:48:18.479Z,90.69
2017-12-29T22:50:45.994Z,90.76
2017-12-29T22:53:13.589Z,90.63
2017-12-29T22:55:41.077Z,90.98
2017-12-29T22:58:08.569Z,91.28
2017-12-29T23:00:36.080Z,91.07
2017-12-29T23:03:03.561Z,90.52
2017-12-29T23:05:31.080Z,91.70
2017-12-29T23:07:58.576Z,91.44
2017-12-29T23:10:26.120Z,91.72
2017-12-29T23:12:53.596Z,91.83
2017-12-29T23:15:21.196Z,93.35
2017-12-29T23:17:48.676Z,94.12
2017-12-29T23:20:16.192Z,94.12
2017-12-29T23:22:43.734Z,95.56
2017-12-29T23:25:11.272Z,95.06
2017-12-29T23:27:38.753Z,95.49
2017-12-29T23:30:07.141Z,96.03
2017-12-29T23:32:34.601Z,95.78
2017-12-29T23:35:02.087Z,95.90
2017-12-29T23:37:29.667Z,95.69
2017-12-29T23:39:57.137Z,95.66
2017-12-29T23:42:24.890Z,96.21
2017-12-29T23:44:52.409Z,96.51
2017-12-29T23:47:23.502Z,95.85
2017-12-29T23:49:51.011Z,96.58
2017-12-29T23:52:18.484Z,97.34
2017-12-29T23:54:45.951Z,96.66
2017-12-29T23:57:13.432Z,97.32
2017-12-29T23:59:40.915Z,97.68
